sensor_id;sensor_type;location;lat;lon;timestamp;pressure;altitude;pressure_sealevel;temperature;humidity
8653;BME280;4364;52.426;9.424;2023-02-15T00:01:42;102489.59;;;0.94;100.00
8653;BME280;4364;52.426;9.424;2023-02-15T00:04:13;102490.09;;;0.89;100.00
8653;BME280;4364;52.426;9.424;2023-02-15T00:06:40;102494.63;;;0.72;100.00
8653;BME280;4364;52.426;9.424;2023-02-15T00:09:07;102486.09;;;0.61;100.00
8653;BME280;4364;52.426;9.424;2023-02-15T00:11:34;102491.94;;;0.56;100.00
8653;BME280;4364;52.426;9.424;2023-02-15T00:14:20;102488.94;;;0.51;100.00
8653;BME280;4364;52.426;9.424;2023-02-15T00:16:47;102482.56;;;0.44;100.00
8653;BME280;4364;52.426;9.424;2023-02-15T00:19:17;102478.88;;;0.45;100.00
8653;BME280;4364;52.426;9.424;2023-02-15T00:21:44;102478.22;;;0.43;100.00
8653;BME280;4364;52.426;9.424;2023-02-15T00:24:12;102471.00;;;0.43;100.00
8653;BME280;4364;52.426;9.424;2023-02-15T00:26:40;102470.84;;;0.36;100.00
8653;BME280;4364;52.426;9.424;2023-02-15T00:29:08;102475.69;;;0.41;100.00
8653;BME280;4364;52.426;9.424;2023-02-15T00:31:35;102474.72;;;0.42;100.00
8653;BME280;4364;52.426;9.424;2023-02-15T00:34:07;102469.50;;;0.41;100.00
8653;BME280;4364;52.426;9.424;2023-02-15T00:36:36;102471.34;;;0.40;100.00
8653;BME280;4364;52.426;9.424;2023-02-15T00:39:03;102474.00;;;0.40;100.00
8653;BME280;4364;52.426;9.424;2023-02-15T00:41:31;102468.84;;;0.39;100.00
8653;BME280;4364;52.426;9.424;2023-02-15T00:43:58;102464.66;;;0.36;100.00
8653;BME280;4364;52.426;9.424;2023-02-15T00:46:25;102473.19;;;0.40;100.00
8653;BME280;4364;52.426;9.424;2023-02-15T00:48:51;102462.00;;;0.44;100.00
8653;BME280;4364;52.426;9.424;2023-02-15T00:51:18;102453.97;;;0.44;100.00
8653;BME280;4364;52.426;9.424;2023-02-15T00:53:44;102458.13;;;0.47;100.00
8653;BME280;4364;52.426;9.424;2023-02-15T00:56:12;102456.13;;;0.41;100.00
8653;BME280;4364;52.426;9.424;2023-02-15T00:58:39;102458.16;;;0.39;100.00
8653;BME280;4364;52.426;9.424;2023-02-15T01:01:10;102464.16;;;0.41;100.00
8653;BME280;4364;52.426;9.424;2023-02-15T01:03:38;102466.34;;;0.37;100.00
8653;BME280;4364;52.426;9.424;2023-02-15T01:06:04;102457.13;;;0.31;100.00
8653;BME280;4364;52.426;9.424;2023-02-15T01:08:31;102456.78;;;0.26;100.00
8653;BME280;4364;52.426;9.424;2023-02-15T01:11:06;102458.59;;;0.17;100.00
8653;BME280;4364;52.426;9.424;2023-02-15T01:13:33;102449.59;;;0.18;100.00
8653;BME280;4364;52.426;9.424;2023-02-15T01:16:02;102444.03;;;0.20;100.00
8653;BME280;4364;52.426;9.424;2023-02-15T01:18:29;102448.75;;;0.26;100.00
8653;BME280;4364;52.426;9.424;2023-02-15T01:20:56;102435.53;;;0.25;100.00
8653;BME280;4364;52.426;9.424;2023-02-15T01:23:23;102442.91;;;0.23;100.00
8653;BME280;4364;52.426;9.424;2023-02-15T01:25:50;102442.56;;;0.17;100.00
8653;BME280;4364;52.426;9.424;2023-02-15T01:28:17;102439.69;;;0.11;100.00
8653;BME280;4364;52.426;9.424;2023-02-15T01:30:44;102434.69;;;0.08;100.00
8653;BME280;4364;52.426;9.424;2023-02-15T01:33:10;102436.69;;;0.06;100.00
8653;BME280;4364;52.426;9.424;2023-02-15T01:35:46;102431.34;;;0.06;100.00
8653;BME280;4364;52.426;9.424;2023-02-15T01:38:14;102437.50;;;0.06;100.00
8653;BME280;4364;52.426;9.424;2023-02-15T01:40:40;102426.31;;;0.03;100.00
8653;BME280;4364;52.426;9.424;2023-02-15T01:43:11;102435.31;;;0.02;100.00
8653;BME280;4364;52.426;9.424;2023-02-15T01:45:39;102426.13;;;-0.04;100.00
8653;BME280;4364;52.426;9.424;2023-02-15T01:48:24;102422.31;;;-0.02;100.00
8653;BME280;4364;52.426;9.424;2023-02-15T01:50:56;102416.97;;;-0.02;100.00
8653;BME280;4364;52.426;9.424;2023-02-15T01:53:30;102413.44;;;0.06;100.00
8653;BME280;4364;52.426;9.424;2023-02-15T01:56:07;102415.63;;;0.19;100.00
8653;BME280;4364;52.426;9.424;2023-02-15T01:58:36;102413.13;;;0.26;100.00
8653;BME280;4364;52.426;9.424;2023-02-15T02:01:04;102416.66;;;0.43;100.00
8653;BME280;4364;52.426;9.424;2023-02-15T02:03:59;102411.78;;;0.30;100.00
8653;BME280;4364;52.426;9.424;2023-02-15T02:06:30;102404.63;;;0.39;100.00
8653;BME280;4364;52.426;9.424;2023-02-15T02:09:00;102401.41;;;0.43;100.00
8653;BME280;4364;52.426;9.424;2023-02-15T02:11:27;102408.44;;;0.36;100.00
8653;BME280;4364;52.426;9.424;2023-02-15T02:13:54;102394.56;;;0.32;100.00
8653;BME280;4364;52.426;9.424;2023-02-15T02:16:40;102388.72;;;0.29;100.00
8653;BME280;4364;52.426;9.424;2023-02-15T02:30:58;102404.34;;;-0.26;100.00
8653;BME280;4364;52.426;9.424;2023-02-15T02:33:39;102393.81;;;-0.27;100.00
8653;BME280;4364;52.426;9.424;2023-02-15T02:36:36;102393.19;;;-0.21;100.00
8653;BME280;4364;52.426;9.424;2023-02-15T02:39:37;102392.00;;;-0.19;100.00
8653;BME280;4364;52.426;9.424;2023-02-15T02:44:48;102389.19;;;-0.09;100.00
8653;BME280;4364;52.426;9.424;2023-02-15T02:47:21;102380.00;;;-0.06;100.00
8653;BME280;4364;52.426;9.424;2023-02-15T02:49:59;102374.66;;;-0.06;100.00
8653;BME280;4364;52.426;9.424;2023-02-15T02:55:13;102375.13;;;-0.11;100.00
8653;BME280;4364;52.426;9.424;2023-02-15T02:58:01;102360.59;;;-0.16;100.00
8653;BME280;4364;52.426;9.424;2023-02-15T03:00:32;102366.94;;;-0.17;100.00
8653;BME280;4364;52.426;9.424;2023-02-15T03:03:12;102371.47;;;-0.18;100.00
8653;BME280;4364;52.426;9.424;2023-02-15T03:05:44;102369.59;;;-0.26;100.00
8653;BME280;4364;52.426;9.424;2023-02-15T03:08:14;102366.25;;;-0.28;100.00
8653;BME280;4364;52.426;9.424;2023-02-15T03:10:50;102363.75;;;-0.21;100.00
8653;BME280;4364;52.426;9.424;2023-02-15T03:13:19;102355.41;;;-0.18;100.00
8653;BME280;4364;52.426;9.424;2023-02-15T03:15:48;102345.53;;;-0.17;100.00
8653;BME280;4364;52.426;9.424;2023-02-15T03:18:52;102352.06;;;-0.20;100.00
8653;BME280;4364;52.426;9.424;2023-02-15T03:21:30;102348.22;;;-0.17;100.00
8653;BME280;4364;52.426;9.424;2023-02-15T03:24:03;102346.72;;;-0.20;100.00
8653;BME280;4364;52.426;9.424;2023-02-15T03:26:32;102346.34;;;-0.25;100.00
8653;BME280;4364;52.426;9.424;2023-02-15T03:29:01;102345.34;;;-0.32;100.00
8653;BME280;4364;52.426;9.424;2023-02-15T03:31:32;102341.03;;;-0.33;100.00
8653;BME280;4364;52.426;9.424;2023-02-15T03:34:03;102338.16;;;-0.32;100.00
8653;BME280;4364;52.426;9.424;2023-02-15T03:36:42;102338.16;;;-0.32;100.00
8653;BME280;4364;52.426;9.424;2023-02-15T03:39:18;102343.00;;;-0.35;100.00
8653;BME280;4364;52.426;9.424;2023-02-15T03:41:54;102345.84;;;-0.37;100.00
8653;BME280;4364;52.426;9.424;2023-02-15T03:44:27;102346.69;;;-0.45;100.00
8653;BME280;4364;52.426;9.424;2023-02-15T03:47:00;102339.13;;;-0.58;100.00
8653;BME280;4364;52.426;9.424;2023-02-15T03:49:52;102340.28;;;-0.60;100.00
8653;BME280;4364;52.426;9.424;2023-02-15T03:52:21;102340.28;;;-0.52;100.00
8653;BME280;4364;52.426;9.424;2023-02-15T03:54:49;102323.25;;;-0.51;100.00
8653;BME280;4364;52.426;9.424;2023-02-15T03:57:21;102328.28;;;-0.48;100.00
8653;BME280;4364;52.426;9.424;2023-02-15T04:00:16;102326.94;;;-0.44;100.00
8653;BME280;4364;52.426;9.424;2023-02-15T04:03:27;102335.97;;;-0.53;100.00
8653;BME280;4364;52.426;9.424;2023-02-15T04:05:55;102335.28;;;-0.55;100.00
8653;BME280;4364;52.426;9.424;2023-02-15T04:08:21;102330.81;;;-0.46;100.00
8653;BME280;4364;52.426;9.424;2023-02-15T04:11:08;102331.44;;;-0.52;100.00
8653;BME280;4364;52.426;9.424;2023-02-15T04:13:34;102331.09;;;-0.58;100.00
8653;BME280;4364;52.426;9.424;2023-02-15T04:16:01;102333.09;;;-0.60;100.00
8653;BME280;4364;52.426;9.424;2023-02-15T04:18:36;102327.56;;;-0.66;100.00
8653;BME280;4364;52.426;9.424;2023-02-15T04:21:23;102334.44;;;-0.56;100.00
8653;BME280;4364;52.426;9.424;2023-02-15T04:24:09;102336.94;;;-0.54;100.00
8653;BME280;4364;52.426;9.424;2023-02-15T04:26:54;102326.44;;;-0.47;100.00
8653;BME280;4364;52.426;9.424;2023-02-15T04:29:21;102328.78;;;-0.52;100.00
8653;BME280;4364;52.426;9.424;2023-02-15T04:31:49;102326.56;;;-0.65;100.00
8653;BME280;4364;52.426;9.424;2023-02-15T04:34:16;102319.56;;;-0.66;100.00
8653;BME280;4364;52.426;9.424;2023-02-15T04:36:43;102324.06;;;-0.67;100.00
8653;BME280;4364;52.426;9.424;2023-02-15T04:39:13;102312.34;;;-0.74;100.00
8653;BME280;4364;52.426;9.424;2023-02-15T04:41:40;102319.03;;;-0.78;100.00
8653;BME280;4364;52.426;9.424;2023-02-15T04:44:07;102317.81;;;-0.84;100.00
8653;BME280;4364;52.426;9.424;2023-02-15T04:46:33;102317.31;;;-0.87;100.00
8653;BME280;4364;52.426;9.424;2023-02-15T04:48:59;102312.44;;;-0.92;100.00
8653;BME280;4364;52.426;9.424;2023-02-15T04:51:27;102308.94;;;-0.93;100.00
8653;BME280;4364;52.426;9.424;2023-02-15T04:53:53;102309.78;;;-0.92;100.00
8653;BME280;4364;52.426;9.424;2023-02-15T04:56:20;102300.47;;;-0.88;100.00
8653;BME280;4364;52.426;9.424;2023-02-15T04:58:47;102295.63;;;-0.84;100.00
8653;BME280;4364;52.426;9.424;2023-02-15T05:01:14;102296.44;;;-0.84;100.00
8653;BME280;4364;52.426;9.424;2023-02-15T05:03:41;102303.63;;;-0.84;100.00
8653;BME280;4364;52.426;9.424;2023-02-15T05:06:08;102299.97;;;-0.83;100.00
8653;BME280;4364;52.426;9.424;2023-02-15T05:08:34;102293.94;;;-0.85;100.00
8653;BME280;4364;52.426;9.424;2023-02-15T05:11:01;102294.13;;;-0.87;100.00
8653;BME280;4364;52.426;9.424;2023-02-15T05:13:27;102292.78;;;-0.83;100.00
8653;BME280;4364;52.426;9.424;2023-02-15T05:15:54;102292.78;;;-0.83;100.00
8653;BME280;4364;52.426;9.424;2023-02-15T05:18:21;102295.63;;;-0.84;100.00
8653;BME280;4364;52.426;9.424;2023-02-15T05:20:48;102290.44;;;-0.86;100.00
8653;BME280;4364;52.426;9.424;2023-02-15T05:23:15;102280.41;;;-0.84;100.00
8653;BME280;4364;52.426;9.424;2023-02-15T05:25:46;102284.28;;;-0.86;100.00
8653;BME280;4364;52.426;9.424;2023-02-15T05:28:32;102274.25;;;-0.84;100.00
8653;BME280;4364;52.426;9.424;2023-02-15T05:31:07;102276.47;;;-0.71;100.00
8653;BME280;4364;52.426;9.424;2023-02-15T05:33:34;102278.47;;;-0.57;100.00
8653;BME280;4364;52.426;9.424;2023-02-15T05:36:01;102280.03;;;-0.46;100.00
8653;BME280;4364;52.426;9.424;2023-02-15T05:38:29;102281.69;;;-0.37;100.00
8653;BME280;4364;52.426;9.424;2023-02-15T05:40:55;102279.53;;;-0.33;100.00
8653;BME280;4364;52.426;9.424;2023-02-15T05:43:22;102269.03;;;-0.27;100.00
8653;BME280;4364;52.426;9.424;2023-02-15T05:45:51;102268.16;;;-0.27;100.00
8653;BME280;4364;52.426;9.424;2023-02-15T05:48:19;102270.84;;;-0.19;100.00
8653;BME280;4364;52.426;9.424;2023-02-15T05:50:45;102274.53;;;-0.20;100.00
8653;BME280;4364;52.426;9.424;2023-02-15T05:53:12;102269.34;;;-0.22;100.00
8653;BME280;4364;52.426;9.424;2023-02-15T05:55:40;102270.69;;;-0.17;100.00
8653;BME280;4364;52.426;9.424;2023-02-15T05:58:07;102274.19;;;-0.17;100.00
8653;BME280;4364;52.426;9.424;2023-02-15T06:00:34;102264.50;;;-0.18;100.00
8653;BME280;4364;52.426;9.424;2023-02-15T06:03:03;102275.03;;;-0.16;100.00
8653;BME280;4364;52.426;9.424;2023-02-15T06:05:29;102274.53;;;-0.20;100.00
8653;BME280;4364;52.426;9.424;2023-02-15T06:07:56;102267.50;;;-0.21;100.00
8653;BME280;4364;52.426;9.424;2023-02-15T06:10:22;102267.00;;;-0.16;100.00
8653;BME280;4364;52.426;9.424;2023-02-15T06:12:49;102270.03;;;-0.11;100.00
8653;BME280;4364;52.426;9.424;2023-02-15T06:15:15;102274.34;;;-0.19;100.00
8653;BME280;4364;52.426;9.424;2023-02-15T06:17:42;102278.88;;;-0.19;100.00
8653;BME280;4364;52.426;9.424;2023-02-15T06:20:09;102269.00;;;-0.19;100.00
8653;BME280;4364;52.426;9.424;2023-02-15T06:22:36;102262.00;;;-0.20;100.00
8653;BME280;4364;52.426;9.424;2023-02-15T06:25:02;102265.00;;;-0.23;100.00
8653;BME280;4364;52.426;9.424;2023-02-15T06:27:29;102260.63;;;-0.32;100.00
8653;BME280;4364;52.426;9.424;2023-02-15T06:29:56;102266.84;;;-0.23;100.00
8653;BME280;4364;52.426;9.424;2023-02-15T06:32:22;102257.97;;;-0.24;100.00
8653;BME280;4364;52.426;9.424;2023-02-15T06:34:49;102272.19;;;-0.23;100.00
8653;BME280;4364;52.426;9.424;2023-02-15T06:37:15;102273.69;;;-0.29;100.00
8653;BME280;4364;52.426;9.424;2023-02-15T06:39:42;102276.50;;;-0.30;100.00
8653;BME280;4364;52.426;9.424;2023-02-15T06:42:09;102267.81;;;-0.32;100.00
8653;BME280;4364;52.426;9.424;2023-02-15T06:44:35;102256.81;;;-0.29;100.00
8653;BME280;4364;52.426;9.424;2023-02-15T06:47:02;102270.19;;;-0.29;100.00
8653;BME280;4364;52.426;9.424;2023-02-15T06:49:29;102266.34;;;-0.27;100.00
8653;BME280;4364;52.426;9.424;2023-02-15T06:51:55;102272.03;;;-0.30;100.00
8653;BME280;4364;52.426;9.424;2023-02-15T06:54:22;102271.16;;;-0.30;100.00
8653;BME280;4364;52.426;9.424;2023-02-15T06:56:48;102272.84;;;-0.29;100.00
8653;BME280;4364;52.426;9.424;2023-02-15T06:59:15;102269.69;;;-0.25;100.00
8653;BME280;4364;52.426;9.424;2023-02-15T07:01:41;102268.50;;;-0.22;100.00
8653;BME280;4364;52.426;9.424;2023-02-15T07:04:08;102274.69;;;-0.22;100.00
8653;BME280;4364;52.426;9.424;2023-02-15T07:06:35;102264.66;;;-0.20;100.00
8653;BME280;4364;52.426;9.424;2023-02-15T07:09:02;102273.50;;;-0.11;100.00
8653;BME280;4364;52.426;9.424;2023-02-15T07:11:28;102258.63;;;-0.05;100.00
8653;BME280;4364;52.426;9.424;2023-02-15T07:14:14;102264.13;;;0.02;100.00
8653;BME280;4364;52.426;9.424;2023-02-15T07:16:40;102270.19;;;0.04;100.00
8653;BME280;4364;52.426;9.424;2023-02-15T07:19:07;102287.56;;;-0.01;100.00
8653;BME280;4364;52.426;9.424;2023-02-15T07:21:34;102281.22;;;0.01;100.00
8653;BME280;4364;52.426;9.424;2023-02-15T07:24:01;102280.03;;;0.03;100.00
8653;BME280;4364;52.426;9.424;2023-02-15T07:26:31;102273.19;;;0.01;100.00
8653;BME280;4364;52.426;9.424;2023-02-15T07:28:57;102274.19;;;-0.01;100.00
8653;BME280;4364;52.426;9.424;2023-02-15T07:31:24;102272.16;;;0.02;100.00
8653;BME280;4364;52.426;9.424;2023-02-15T07:33:50;102270.50;;;0.09;100.00
8653;BME280;4364;52.426;9.424;2023-02-15T07:36:17;102275.69;;;0.10;100.00
8653;BME280;4364;52.426;9.424;2023-02-15T07:38:44;102272.81;;;0.20;100.00
8653;BME280;4364;52.426;9.424;2023-02-15T07:41:12;102271.16;;;0.19;100.00
8653;BME280;4364;52.426;9.424;2023-02-15T07:43:41;102265.47;;;0.22;100.00
8653;BME280;4364;52.426;9.424;2023-02-15T07:46:10;102264.94;;;0.27;100.00
8653;BME280;4364;52.426;9.424;2023-02-15T07:48:38;102262.94;;;0.29;100.00
8653;BME280;4364;52.426;9.424;2023-02-15T07:51:08;102254.38;;;0.33;100.00
8653;BME280;4364;52.426;9.424;2023-02-15T07:53:35;102252.75;;;0.32;100.00
8653;BME280;4364;52.426;9.424;2023-02-15T07:56:05;102246.19;;;0.35;100.00
8653;BME280;4364;52.426;9.424;2023-02-15T07:58:35;102254.53;;;0.40;100.00
8653;BME280;4364;52.426;9.424;2023-02-15T08:01:19;102246.66;;;0.47;100.00
8653;BME280;4364;52.426;9.424;2023-02-15T08:03:46;102243.13;;;0.54;100.00
8653;BME280;4364;52.426;9.424;2023-02-15T08:06:13;102234.25;;;0.62;100.00
8653;BME280;4364;52.426;9.424;2023-02-15T08:08:40;102238.72;;;0.70;100.00
8653;BME280;4364;52.426;9.424;2023-02-15T08:11:14;102231.69;;;0.77;100.00
8653;BME280;4364;52.426;9.424;2023-02-15T08:16:35;102228.13;;;0.85;100.00
8653;BME280;4364;52.426;9.424;2023-02-15T08:19:10;102225.41;;;0.93;100.00
8653;BME280;4364;52.426;9.424;2023-02-15T08:21:40;102219.53;;;0.98;100.00
8653;BME280;4364;52.426;9.424;2023-02-15T08:24:08;102218.66;;;1.05;100.00
8653;BME280;4364;52.426;9.424;2023-02-15T08:26:35;102224.31;;;1.10;100.00
8653;BME280;4364;52.426;9.424;2023-02-15T08:29:03;102217.44;;;1.08;100.00
8653;BME280;4364;52.426;9.424;2023-02-15T08:31:29;102213.94;;;1.07;100.00
8653;BME280;4364;52.426;9.424;2023-02-15T08:33:56;102218.22;;;1.17;100.00
8653;BME280;4364;52.426;9.424;2023-02-15T08:36:26;102216.59;;;1.16;100.00
8653;BME280;4364;52.426;9.424;2023-02-15T08:38:54;102220.38;;;1.21;100.00
8653;BME280;4364;52.426;9.424;2023-02-15T08:41:26;102220.91;;;1.17;100.00
8653;BME280;4364;52.426;9.424;2023-02-15T08:43:54;102211.34;;;1.22;100.00
8653;BME280;4364;52.426;9.424;2023-02-15T08:46:22;102214.31;;;1.27;100.00
8653;BME280;4364;52.426;9.424;2023-02-15T08:48:50;102217.59;;;1.38;100.00
8653;BME280;4364;52.426;9.424;2023-02-15T08:51:19;102210.56;;;1.37;100.00
8653;BME280;4364;52.426;9.424;2023-02-15T08:53:48;102218.91;;;1.42;100.00
8653;BME280;4364;52.426;9.424;2023-02-15T08:56:16;102218.06;;;1.41;100.00
8653;BME280;4364;52.426;9.424;2023-02-15T08:58:43;102217.53;;;1.46;100.00
8653;BME280;4364;52.426;9.424;2023-02-15T09:01:11;102216.16;;;1.50;100.00
8653;BME280;4364;52.426;9.424;2023-02-15T09:03:38;102213.78;;;1.55;100.00
8653;BME280;4364;52.426;9.424;2023-02-15T09:06:06;102221.56;;;1.65;100.00
8653;BME280;4364;52.426;9.424;2023-02-15T09:08:33;102219.13;;;1.78;100.00
8653;BME280;4364;52.426;9.424;2023-02-15T09:11:29;102213.78;;;1.93;100.00
8653;BME280;4364;52.426;9.424;2023-02-15T09:13:58;102202.88;;;1.95;99.90
8653;BME280;4364;52.426;9.424;2023-02-15T09:16:29;102205.94;;;2.07;99.20
8653;BME280;4364;52.426;9.424;2023-02-15T09:18:57;102208.81;;;2.20;98.04
8653;BME280;4364;52.426;9.424;2023-02-15T09:21:31;102200.31;;;2.16;98.30
8653;BME280;4364;52.426;9.424;2023-02-15T09:24:00;102204.84;;;2.31;97.29
8653;BME280;4364;52.426;9.424;2023-02-15T09:26:33;102199.38;;;2.54;97.35
8653;BME280;4364;52.426;9.424;2023-02-15T09:29:02;102196.41;;;2.49;97.25
8653;BME280;4364;52.426;9.424;2023-02-15T09:31:32;102199.00;;;2.57;97.07
8653;BME280;4364;52.426;9.424;2023-02-15T09:34:00;102199.00;;;2.57;96.16
8653;BME280;4364;52.426;9.424;2023-02-15T09:36:36;102194.28;;;2.59;96.38
8653;BME280;4364;52.426;9.424;2023-02-15T09:44:31;102206.47;;;2.76;96.05
8653;BME280;4364;52.426;9.424;2023-02-15T09:49:40;102197.84;;;2.96;94.82
8653;BME280;4364;52.426;9.424;2023-02-15T09:52:37;102201.03;;;3.06;93.91
8653;BME280;4364;52.426;9.424;2023-02-15T09:55:38;102200.03;;;3.29;92.27
8653;BME280;4364;52.426;9.424;2023-02-15T09:58:32;102197.81;;;3.32;91.01
8653;BME280;4364;52.426;9.424;2023-02-15T10:01:11;102200.34;;;3.41;90.23
8653;BME280;4364;52.426;9.424;2023-02-15T10:12:46;102191.59;;;3.82;87.77
8653;BME280;4364;52.426;9.424;2023-02-15T10:15:41;102196.66;;;3.92;86.63
8653;BME280;4364;52.426;9.424;2023-02-15T10:18:30;102193.63;;;4.01;86.13
8653;BME280;4364;52.426;9.424;2023-02-15T10:26:40;102184.19;;;4.19;83.87
8653;BME280;4364;52.426;9.424;2023-02-15T10:29:23;102191.63;;;4.17;84.52
8653;BME280;4364;52.426;9.424;2023-02-15T10:32:21;102193.94;;;4.20;83.62
8653;BME280;4364;52.426;9.424;2023-02-15T10:38:17;102182.69;;;4.44;82.19
8653;BME280;4364;52.426;9.424;2023-02-15T10:41:12;102187.94;;;4.59;81.42
8653;BME280;4364;52.426;9.424;2023-02-15T10:44:11;102182.09;;;4.56;81.68
8653;BME280;4364;52.426;9.424;2023-02-15T11:01:18;102179.34;;;4.91;78.84
8653;BME280;4364;52.426;9.424;2023-02-15T11:04:26;102178.16;;;5.07;78.57
8653;BME280;4364;52.426;9.424;2023-02-15T11:07:03;102172.34;;;5.03;78.99
8653;BME280;4364;52.426;9.424;2023-02-15T11:09:41;102174.63;;;5.06;78.84
8653;BME280;4364;52.426;9.424;2023-02-15T11:12:19;102177.13;;;5.21;78.92
8653;BME280;4364;52.426;9.424;2023-02-15T11:15:00;102175.69;;;5.25;78.72
8653;BME280;4364;52.426;9.424;2023-02-15T11:17:39;102172.97;;;5.18;80.03
8653;BME280;4364;52.426;9.424;2023-02-15T11:20:19;102161.16;;;5.39;79.02
8653;BME280;4364;52.426;9.424;2023-02-15T11:22:49;102164.09;;;5.38;79.55
8653;BME280;4364;52.426;9.424;2023-02-15T11:25:20;102168.84;;;5.43;80.15
8653;BME280;4364;52.426;9.424;2023-02-15T11:27:49;102172.19;;;5.51;79.72
8653;BME280;4364;52.426;9.424;2023-02-15T11:30:21;102162.63;;;5.49;78.46
8653;BME280;4364;52.426;9.424;2023-02-15T11:32:52;102153.06;;;5.60;78.74
8653;BME280;4364;52.426;9.424;2023-02-15T11:35:26;102147.25;;;5.69;79.48
8653;BME280;4364;52.426;9.424;2023-02-15T11:38:14;102151.00;;;5.88;77.52
8653;BME280;4364;52.426;9.424;2023-02-15T11:40:53;102144.34;;;5.78;77.94
8653;BME280;4364;52.426;9.424;2023-02-15T11:45:51;102136.84;;;5.93;76.77
8653;BME280;4364;52.426;9.424;2023-02-15T11:48:18;102136.25;;;5.98;77.13
8653;BME280;4364;52.426;9.424;2023-02-15T11:50:45;102136.63;;;6.08;76.95
8653;BME280;4364;52.426;9.424;2023-02-15T11:53:16;102128.16;;;5.98;76.58
8653;BME280;4364;52.426;9.424;2023-02-15T11:55:45;102118.59;;;5.88;76.48
8653;BME280;4364;52.426;9.424;2023-02-15T12:01:35;102127.91;;;6.12;77.22
8653;BME280;4364;52.426;9.424;2023-02-15T12:07:10;102125.34;;;6.38;75.39
8653;BME280;4364;52.426;9.424;2023-02-15T12:10:00;102127.00;;;6.39;75.94
8653;BME280;4364;52.426;9.424;2023-02-15T12:12:32;102136.28;;;6.49;75.53
8653;BME280;4364;52.426;9.424;2023-02-15T12:15:02;102126.53;;;6.55;74.72
8653;BME280;4364;52.426;9.424;2023-02-15T12:17:50;102133.28;;;6.71;73.71
8653;BME280;4364;52.426;9.424;2023-02-15T12:22:53;102123.28;;;6.78;73.49
8653;BME280;4364;52.426;9.424;2023-02-15T12:25:25;102125.97;;;6.85;73.29
8653;BME280;4364;52.426;9.424;2023-02-15T12:27:52;102123.69;;;6.82;73.08
8653;BME280;4364;52.426;9.424;2023-02-15T12:30:34;102117.56;;;6.93;72.69
8653;BME280;4364;52.426;9.424;2023-02-15T12:33:15;102118.38;;;7.00;72.20
8653;BME280;4364;52.426;9.424;2023-02-15T12:35:43;102110.25;;;7.00;72.38
8653;BME280;4364;52.426;9.424;2023-02-15T12:40:37;102116.13;;;7.22;71.88
8653;BME280;4364;52.426;9.424;2023-02-15T12:43:04;102115.41;;;7.34;71.50
8653;BME280;4364;52.426;9.424;2023-02-15T12:45:37;102101.72;;;7.29;70.81
8653;BME280;4364;52.426;9.424;2023-02-15T12:50:46;102092.81;;;7.47;70.83
8653;BME280;4364;52.426;9.424;2023-02-15T12:53:33;102087.38;;;7.47;71.61
8653;BME280;4364;52.426;9.424;2023-02-15T12:56:02;102086.06;;;7.56;70.34
8653;BME280;4364;52.426;9.424;2023-02-15T12:58:33;102076.28;;;7.55;70.95
8653;BME280;4364;52.426;9.424;2023-02-15T13:01:19;102071.16;;;7.72;70.77
8653;BME280;4364;52.426;9.424;2023-02-15T13:04:15;102070.16;;;7.85;69.87
8653;BME280;4364;52.426;9.424;2023-02-15T13:06:48;102069.25;;;7.91;70.66
8653;BME280;4364;52.426;9.424;2023-02-15T13:09:20;102065.75;;;7.90;70.63
8653;BME280;4364;52.426;9.424;2023-02-15T13:11:51;102062.56;;;7.93;70.07
8653;BME280;4364;52.426;9.424;2023-02-15T13:14:18;102065.19;;;7.82;70.37
8653;BME280;4364;52.426;9.424;2023-02-15T13:16:48;102057.69;;;7.84;70.25
8653;BME280;4364;52.426;9.424;2023-02-15T13:19:18;102051.19;;;7.85;70.76
8653;BME280;4364;52.426;9.424;2023-02-15T13:21:47;102054.28;;;7.88;70.64
8653;BME280;4364;52.426;9.424;2023-02-15T13:24:20;102051.41;;;8.02;70.39
8653;BME280;4364;52.426;9.424;2023-02-15T13:26:52;102048.69;;;8.20;69.92
8653;BME280;4364;52.426;9.424;2023-02-15T13:29:38;102050.81;;;8.18;68.97
8653;BME280;4364;52.426;9.424;2023-02-15T13:34:43;102039.13;;;8.36;68.75
8653;BME280;4364;52.426;9.424;2023-02-15T13:37:19;102037.78;;;8.45;69.14
8653;BME280;4364;52.426;9.424;2023-02-15T13:39:51;102034.44;;;8.43;68.63
8653;BME280;4364;52.426;9.424;2023-02-15T13:42:34;102028.03;;;8.38;68.83
8653;BME280;4364;52.426;9.424;2023-02-15T13:53:43;102020.94;;;8.06;69.43
8653;BME280;4364;52.426;9.424;2023-02-15T14:02:57;102021.53;;;8.08;68.84
8653;BME280;4364;52.426;9.424;2023-02-15T14:05:34;102017.47;;;8.18;69.40
8653;BME280;4364;52.426;9.424;2023-02-15T14:11:20;102014.91;;;8.23;69.00
8653;BME280;4364;52.426;9.424;2023-02-15T14:13:57;102014.44;;;8.26;69.39
8653;BME280;4364;52.426;9.424;2023-02-15T14:16:45;102016.25;;;8.32;69.48
8653;BME280;4364;52.426;9.424;2023-02-15T14:19:45;102016.84;;;8.34;69.09
8653;BME280;4364;52.426;9.424;2023-02-15T14:25:31;102003.66;;;8.38;69.32
8653;BME280;4364;52.426;9.424;2023-02-15T14:30:45;102003.06;;;8.35;69.48
8653;BME280;4364;52.426;9.424;2023-02-15T14:35:41;101999.38;;;8.30;70.07
8653;BME280;4364;52.426;9.424;2023-02-15T14:38:22;102001.50;;;8.28;70.81
8653;BME280;4364;52.426;9.424;2023-02-15T14:41:20;101992.53;;;8.27;71.16
8653;BME280;4364;52.426;9.424;2023-02-15T14:46:50;101995.53;;;8.38;70.46
8653;BME280;4364;52.426;9.424;2023-02-15T14:49:27;101999.13;;;8.31;70.78
8653;BME280;4364;52.426;9.424;2023-02-15T14:51:54;101992.22;;;8.35;71.35
8653;BME280;4364;52.426;9.424;2023-02-15T14:59:45;102001.03;;;8.31;70.88
8653;BME280;4364;52.426;9.424;2023-02-15T15:02:19;101996.28;;;8.26;71.02
8653;BME280;4364;52.426;9.424;2023-02-15T15:05:19;102001.13;;;8.24;71.17
8653;BME280;4364;52.426;9.424;2023-02-15T15:12:50;101985.59;;;8.31;70.11
8653;BME280;4364;52.426;9.424;2023-02-15T15:17:54;101980.66;;;8.40;69.24
8653;BME280;4364;52.426;9.424;2023-02-15T15:20:48;101979.22;;;8.26;69.56
8653;BME280;4364;52.426;9.424;2023-02-15T15:25:58;101973.66;;;8.21;69.57
8653;BME280;4364;52.426;9.424;2023-02-15T15:31:24;101976.78;;;8.06;70.24
8653;BME280;4364;52.426;9.424;2023-02-15T15:42:31;101972.88;;;7.83;71.71
8653;BME280;4364;52.426;9.424;2023-02-15T15:45:17;101968.84;;;7.74;72.33
8653;BME280;4364;52.426;9.424;2023-02-15T15:50:31;101969.22;;;7.59;73.07
8653;BME280;4364;52.426;9.424;2023-02-15T15:52:59;101972.22;;;7.51;73.50
8653;BME280;4364;52.426;9.424;2023-02-15T15:55:30;101973.34;;;7.43;73.87
8653;BME280;4364;52.426;9.424;2023-02-15T15:58:06;101969.66;;;7.37;73.73